KNSE/NSE METAR and TAF weather

Enter ICAO airport designator
Station Type Date Time Source
KNSE METAR 2021/08/05 03:56 UTC NOAA

KNSE 050356Z 00000KT 9SM FEW028 SCT050 SCT110 BKN250 23/22 A3000 RMK SLP143 T02280217


Station Type Date Time Source
KNSE Decoded METAR 2021/08/05 03:56 UTC NOAA

MILTON WHITING FIELD (NORTH), FL, United States (KNSE) 30-44N 87-01W 60M
Aug 04, 2021 - 11:56 PM EDT / 2021.08.05 0356 UTC
Wind: Calm:0
Visibility: 9 mile(s):0
Sky conditions: mostly cloudy
Temperature: 73.0 F (22.8 C)
Dew Point: 71.1 F (21.7 C)
Relative Humidity: 93%
Pressure (altimeter): 30 in. Hg (1015 hPa)
ob: KNSE 050356Z 00000KT 9SM FEW028 SCT050 SCT110 BKN250 23/22 A3000 RMK SLP143 T02280217
cycle: 4

Station Type Date Time Source
KNSE TAF 2021/08/04 23:59 UTC NOAA

TAF KNSE 0423/0523 05008KT 8000 -SHRA SCT020 BKN035 BKN060 OVC120 QNH2993INS
FM050100 VRB05KT 9999 SCT035 SCT120 BKN250 QNH2996INS
FM050800 00000KT 8000 BR FEW008 SCT015 BKN100 QNH2999INS
FM051400 05008KT 9999 SCT025 SCT100 BKN250 QNH3003INS
FM051800 07010KT 9999 VCTS SCT035CB SCT120 BKN250 QNH2999INS
TEMPO 0519/0523 8000 -SHRA SCT020 BKN050CB BKN120 AUTOMATED SENSOR METWATCH 0504 TIL 0511 T23/0511Z T30/0519Z FN20029

Example: see airport list